Puerto Banus, Marbella

>

This is an optional block (switch it off / on) in the settings - file ($SITE['banners'] = false;)

You can display ads, any other important text or photo’s using text / html or PHP code.

You can place one or more at the top and or bottom and it can all be different for content / size .



aviso para Tormentas more information blitzortung!


aviso para Luvia  rain snow radar


Visita nuestra red de sitios de meteo:

Documentation for the template used

MeteoibericaRed estaciones Meteorologicas

MeteoclimaticRed estaciones Meteorologicas



Lluvia Desde: 21-10-2018 11:00 Hasta: 16:59 Advertencias para: Lluvia Nivel: Rojo info button
Tormentas Desde: 21-10-2018 11:00 Hasta: 22:59 Advertencias para: Tormentas Nivel: Amarillo info button

Pagina Historial Weather Underground texto

Diario Resumen Diciembre 27, 2017 Unidades:  impérial    Métrico   Tanto
« Anterior Dia
Siguiente Dia »
Diario Semana Mensual Anual Personalizada
  Maxima: Minima: Media:
Temperatura: TemperatureC °F 14.2 °F 16.4 °F
Punto de rocío: DewpointC °F 8.4 °F 10.8 °F
Humedad: Humidity % 56 % 71 %
Velocidad del Viento: WindSpeedKMH mph 3.7 mph 30.1 mph
Ráfagas de viento: WindSpeedGustKMH mph - -
Viento:- - West
Pression baro: PressurehPa in 1014.1 in -
Précipitaciones: 0.0 in    
Historical Graphs
 
 
Datos de tabla para Diciembre 27, 2017
Tiempo Temperatura Punto de rocío Pression baro Viento Velocidad del Viento Ráfagas de viento Humedad Las precipitaciones Rate ( Hora )
TemperatureC °F DewpointC °F PressurehPa in Calm     Humidity % HourlyPrecipMM in
00:02 15.3 °F 9.8 °F 1020.2 in West 18.5 mph 18.5 mph 70 % 0.0 in
00:07 15.1 °F 9.7 °F 1020.2 in West 11.1 mph 11.1 mph 70 % 0.0 in
00:12 15.1 °F 9.4 °F 1019.9 in West 16.7 mph 16.7 mph 69 % 0.0 in
00:13 15.1 °F 9.4 °F 1019.9 in WSW 16.1 mph 16.1 mph 69 % 0.0 in
00:18 15.3 °F 9.4 °F 1019.9 in WSW 16.1 mph 16.1 mph 68 % 0.0 in
00:22 15.3 °F 9.4 °F 1019.9 in WSW 9.3 mph 9.3 mph 68 % 0.0 in
00:24 15.3 °F 9.4 °F 1019.9 in SW 13.0 mph 13.0 mph 68 % 0.0 in
00:27 15.4 °F 9.3 °F 1019.9 in WSW 14.8 mph 14.8 mph 67 % 0.0 in
00:29 15.4 °F 9.3 °F 1019.9 in WSW 14.8 mph 14.8 mph 67 % 0.0 in
00:32 15.5 °F 9.8 °F 1019.9 in WSW 14.8 mph 14.8 mph 69 % 0.0 in
00:34 15.5 °F 9.8 °F 1019.9 in West 9.7 mph 9.7 mph 69 % 0.0 in
00:38 15.4 °F 9.6 °F 1019.5 in South 14.5 mph 14.5 mph 68 % 0.0 in
00:41 15.5 °F 8.9 °F 1019.5 in SE 18.5 mph 18.5 mph 65 % 0.0 in
00:43 15.6 °F 9.0 °F 1019.5 in South 13.0 mph 13.0 mph 65 % 0.0 in
00:48 15.7 °F 9.6 °F 1019.5 in SW 9.3 mph 9.3 mph 67 % 0.0 in
00:49 15.7 °F 9.6 °F 1019.2 in SW 9.3 mph 9.3 mph 67 % 0.0 in
00:51 15.7 °F 9.6 °F 1019.2 in SW 7.4 mph 7.4 mph 67 % 0.0 in
00:55 15.6 °F 9.7 °F 1019.2 in WSW 5.6 mph 5.6 mph 68 % 0.0 in
01:00 15.6 °F 9.4 °F 1019.2 in WSW 14.8 mph 14.8 mph 67 % 0.0 in
01:05 15.6 °F 9.2 °F 1019.5 in WNW 7.4 mph 7.4 mph 66 % 0.0 in
01:10 15.6 °F 9.0 °F 1019.2 in West 20.4 mph 20.4 mph 65 % 0.0 in
01:14 15.6 °F 8.8 °F 1019.2 in NW 16.7 mph 16.7 mph 64 % 0.0 in
01:16 15.6 °F 8.8 °F 1019.2 in WSW 7.4 mph 7.4 mph 64 % 0.0 in
01:21 15.7 °F 8.9 °F 1019.2 in West 11.3 mph 11.3 mph 64 % 0.0 in
01:22 15.7 °F 8.9 °F 1018.8 in West 11.1 mph 11.1 mph 64 % 0.0 in
01:25 15.7 °F 8.9 °F 1019.2 in West 13.0 mph 13.0 mph 64 % 0.0 in
01:29 15.7 °F 9.1 °F 1019.2 in WNW 6.4 mph 6.4 mph 65 % 0.0 in
01:34 15.7 °F 9.1 °F 1018.8 in NW 11.1 mph 11.1 mph 65 % 0.0 in
01:39 15.7 °F 9.1 °F 1018.8 in West 14.8 mph 14.8 mph 65 % 0.0 in
01:40 15.7 °F 9.1 °F 1018.8 in West 14.8 mph 14.8 mph 65 % 0.0 in
01:45 15.7 °F 9.3 °F 1018.5 in West 9.3 mph 9.3 mph 66 % 0.0 in
01:50 15.7 °F 9.3 °F 1018.5 in WNW 8.0 mph 12.9 mph 66 % 0.0 in
01:54 15.6 °F 9.4 °F 1018.5 in WNW 18.5 mph 18.5 mph 67 % 0.0 in
01:56 15.6 °F 9.4 °F 1018.5 in West 16.7 mph 16.7 mph 67 % 0.0 in
02:00 15.5 °F 9.6 °F 1018.5 in WNW 9.7 mph 22.5 mph 68 % 0.0 in
02:02 15.5 °F 9.6 °F 1018.5 in West 18.5 mph 18.5 mph 68 % 0.0 in
02:07 15.4 °F 9.6 °F 1018.2 in WNW 20.9 mph 20.9 mph 68 % 0.0 in
02:12 15.4 °F 9.6 °F 1018.2 in WNW 14.8 mph 14.8 mph 68 % 0.0 in
02:13 15.4 °F 9.6 °F 1018.2 in West 16.7 mph 16.7 mph 68 % 0.0 in
02:18 15.4 °F 9.6 °F 1018.2 in WNW 20.4 mph 20.4 mph 68 % 0.0 in
02:21 15.4 °F 9.8 °F 1018.2 in WSW 14.8 mph 14.8 mph 69 % 0.0 in
02:23 15.4 °F 9.7 °F 1017.8 in West 18.5 mph 18.5 mph 69 % 0.0 in
02:27 15.3 °F 9.9 °F 1017.8 in West 27.4 mph 27.4 mph 70 % 0.0 in
02:30 15.3 °F 9.9 °F 1017.8 in West 19.3 mph 19.3 mph 70 % 0.0 in
02:32 15.3 °F 10.1 °F 1017.5 in West 20.9 mph 20.9 mph 71 % 0.0 in
02:37 15.2 °F 10.2 °F 1017.5 in West 18.5 mph 18.5 mph 72 % 0.0 in
02:39 15.2 °F 10.2 °F 1017.5 in WSW 27.8 mph 27.8 mph 72 % 0.0 in
02:44 15.1 °F 10.3 °F 1017.5 in West 27.8 mph 27.8 mph 73 % 0.0 in
02:45 15.1 °F 10.4 °F 1017.5 in WSW 20.4 mph 20.4 mph 74 % 0.0 in
02:50 15.1 °F 10.4 °F 1017.5 in West 25.9 mph 25.9 mph 74 % 0.0 in
02:55 15.1 °F 10.4 °F 1017.2 in West 25.9 mph 25.9 mph 74 % 0.0 in
02:57 15.1 °F 10.4 °F 1017.5 in West 22.2 mph 22.2 mph 74 % 0.0 in
03:02 15.1 °F 10.5 °F 1017.2 in WSW 27.8 mph 27.8 mph 74 % 0.0 in
03:03 15.1 °F 10.5 °F 1017.2 in West 27.8 mph 27.8 mph 74 % 0.0 in
03:08 15.2 °F 10.8 °F 1017.5 in WNW 20.9 mph 20.9 mph 75 % 0.0 in
03:11 15.2 °F 10.6 °F 1017.2 in West 20.4 mph 20.4 mph 74 % 0.0 in
03:13 15.2 °F 10.6 °F 1017.2 in West 25.9 mph 25.9 mph 74 % 0.0 in
03:17 15.2 °F 10.6 °F 1016.8 in West 20.4 mph 20.4 mph 74 % 0.0 in
03:18 15.2 °F 10.6 °F 1016.8 in West 27.8 mph 27.8 mph 74 % 0.0 in
03:23 15.3 °F 10.7 °F 1016.5 in West 33.3 mph 33.3 mph 74 % 0.0 in
03:28 15.3 °F 10.7 °F 1016.8 in West 33.3 mph 33.3 mph 74 % 0.0 in
03:29 15.3 °F 10.7 °F 1016.8 in West 33.3 mph 33.3 mph 74 % 0.0 in
03:33 15.3 °F 10.7 °F 1016.8 in WSW 31.5 mph 31.5 mph 74 % 0.0 in
03:34 15.3 °F 10.7 °F 1016.8 in West 31.5 mph 31.5 mph 74 % 0.0 in
03:39 15.4 °F 10.8 °F 1016.8 in West 33.3 mph 33.3 mph 74 % 0.0 in
03:40 15.4 °F 10.8 °F 1016.8 in West 33.3 mph 33.3 mph 74 % 0.0 in
03:45 15.4 °F 10.8 °F 1016.5 in West 31.5 mph 31.5 mph 74 % 0.0 in
03:50 15.4 °F 10.8 °F 1016.5 in West 42.6 mph 42.6 mph 74 % 0.0 in
03:53 15.4 °F 10.8 °F 1016.5 in WSW 42.6 mph 42.6 mph 74 % 0.0 in
03:57 15.5 °F 11.1 °F 1016.5 in West 37.0 mph 37.0 mph 75 % 0.0 in
04:00 15.4 °F 11.1 °F 1016.5 in WSW 38.9 mph 38.9 mph 75 % 0.0 in
04:03 15.4 °F 11.1 °F 1016.5 in WSW 46.3 mph 46.3 mph 75 % 0.0 in
04:07 15.4 °F 11.2 °F 1016.1 in West 42.6 mph 42.6 mph 76 % 0.0 in
04:08 15.4 °F 11.2 °F 1016.5 in WSW 45.1 mph 45.1 mph 76 % 0.0 in
04:13 15.3 °F 11.1 °F 1016.5 in West 38.9 mph 38.9 mph 76 % 0.0 in
04:18 15.3 °F 11.3 °F 1016.1 in West 46.7 mph 46.7 mph 77 % 0.0 in
04:22 15.3 °F 11.4 °F 1016.5 in West 38.9 mph 38.9 mph 78 % 0.0 in
04:24 15.2 °F 11.4 °F 1016.5 in West 50.0 mph 50.0 mph 78 % 0.0 in
04:28 15.2 °F 11.3 °F 1016.5 in West 42.6 mph 42.6 mph 78 % 0.0 in
04:31 15.1 °F 11.5 °F 1016.5 in WSW 55.5 mph 55.5 mph 79 % 0.0 in
04:34 14.9 °F 11.5 °F 1016.5 in West 53.7 mph 53.7 mph 80 % 0.0 in
04:39 14.8 °F 11.6 °F 1016.1 in West 40.7 mph 40.7 mph 81 % 0.0 in
04:40 14.9 °F 11.7 °F 1016.5 in WSW 40.7 mph 40.7 mph 81 % 0.0 in
04:41 14.8 °F 11.6 °F 1016.1 in WSW 48.1 mph 48.1 mph 81 % 0.0 in
04:46 14.8 °F 11.7 °F 1016.1 in West 51.8 mph 51.8 mph 82 % 0.0 in
04:47 14.8 °F 11.7 °F 1016.1 in WSW 53.1 mph 53.1 mph 82 % 0.0 in
04:52 14.7 °F 11.8 °F 1016.1 in WSW 55.5 mph 55.5 mph 83 % 0.0 in
04:53 14.7 °F 11.8 °F 1016.1 in WSW 55.5 mph 55.5 mph 83 % 0.0 in
04:58 14.6 °F 11.9 °F 1015.8 in WSW 50.0 mph 50.0 mph 84 % 0.0 in
05:04 14.4 °F 12.1 °F 1015.8 in WSW 51.8 mph 51.8 mph 86 % 0.0 in
05:06 14.3 °F 11.9 °F 1015.8 in WSW 42.6 mph 42.6 mph 86 % 0.0 in
05:09 14.2 °F 11.9 °F 1015.8 in WSW 48.1 mph 48.1 mph 86 % 0.0 in
05:14 14.2 °F 12.1 °F 1015.8 in WSW 42.6 mph 42.6 mph 87 % 0.0 in
05:16 14.2 °F 12.1 °F 1015.8 in WSW 44.4 mph 44.4 mph 87 % 0.0 in
05:17 14.2 °F 12.1 °F 1016.1 in WSW 46.7 mph 46.7 mph 87 % 0.0 in
05:22 14.2 °F 12.2 °F 1015.8 in WSW 51.8 mph 51.8 mph 88 % 0.0 in
05:24 14.2 °F 12.2 °F 1015.8 in West 42.6 mph 42.6 mph 88 % 0.0 in
05:25 14.2 °F 12.2 °F 1015.8 in SW 42.6 mph 42.6 mph 88 % 0.0 in
05:30 14.2 °F 12.4 °F 1015.5 in WSW 42.6 mph 42.6 mph 89 % 0.0 in
05:32 14.2 °F 12.4 °F 1015.5 in WSW 44.4 mph 44.4 mph 89 % 0.0 in
05:35 14.2 °F 12.4 °F 1015.1 in West 44.4 mph 44.4 mph 89 % 0.0 in
05:38 14.3 °F 12.5 °F 1015.1 in WSW 46.3 mph 46.3 mph 89 % 0.0 in
05:40 14.3 °F 12.6 °F 1015.5 in WSW 50.0 mph 50.0 mph 89 % 0.0 in
05:45 14.3 °F 12.5 °F 1015.1 in WSW 49.9 mph 49.9 mph 89 % 0.0 in
05:46 14.3 °F 12.6 °F 1015.1 in WSW 44.4 mph 44.4 mph 89 % 0.0 in
05:47 14.3 °F 12.6 °F 1014.8 in WSW 50.0 mph 50.0 mph 89 % 0.0 in
05:51 14.3 °F 12.6 °F 1015.1 in WSW 51.8 mph 51.8 mph 89 % 0.0 in
05:54 14.3 °F 12.6 °F 1014.8 in WSW 48.1 mph 48.1 mph 89 % 0.0 in
05:57 14.4 °F 12.6 °F 1014.8 in WSW 55.5 mph 55.5 mph 89 % 0.0 in
06:00 14.4 °F 12.8 °F 1014.8 in WSW 51.8 mph 51.8 mph 90 % 0.0 in
06:02 14.4 °F 12.8 °F 1014.4 in WSW 51.8 mph 51.8 mph 90 % 0.0 in
06:07 14.4 °F 12.8 °F 1014.8 in WSW 42.6 mph 42.6 mph 90 % 0.0 in
06:09 14.4 °F 12.8 °F 1014.4 in WSW 50.0 mph 50.0 mph 90 % 0.0 in
06:14 14.5 °F 12.9 °F 1014.4 in WSW 42.6 mph 42.6 mph 90 % 0.0 in
06:15 14.5 °F 12.9 °F 1014.4 in WSW 44.4 mph 44.4 mph 90 % 0.0 in
06:16 14.5 °F 12.9 °F 1014.4 in WSW 44.4 mph 44.4 mph 90 % 0.0 in
06:21 14.6 °F 13.0 °F 1014.8 in WSW 42.6 mph 42.6 mph 90 % 0.0 in
06:22 14.7 °F 13.1 °F 1014.8 in WSW 44.4 mph 44.4 mph 90 % 0.0 in
06:25 14.7 °F 13.1 °F 1014.4 in WSW 46.3 mph 46.3 mph 90 % 0.0 in
06:27 14.7 °F 12.9 °F 1014.8 in WSW 42.6 mph 42.6 mph 89 % 0.0 in
06:32 14.8 °F 13.0 °F 1014.8 in WSW 51.8 mph 51.8 mph 89 % 0.0 in
06:33 14.8 °F 13.0 °F 1014.8 in WSW 45.1 mph 45.1 mph 89 % 0.0 in
06:38 14.8 °F 13.0 °F 1014.8 in WSW 42.6 mph 42.6 mph 89 % 0.0 in
06:39 14.8 °F 13.0 °F 1014.8 in West 42.6 mph 42.6 mph 89 % 0.0 in
06:43 14.8 °F 13.0 °F 1014.4 in WSW 45.1 mph 45.1 mph 89 % 0.0 in
06:44 14.8 °F 13.0 °F 1015.1 in WSW 44.4 mph 44.4 mph 89 % 0.0 in
06:48 14.8 °F 13.2 °F 1014.8 in WSW 42.6 mph 42.6 mph 90 % 0.0 in
06:53 14.8 °F 13.2 °F 1014.8 in WSW 42.6 mph 42.6 mph 90 % 0.0 in
06:54 14.8 °F 13.2 °F 1014.4 in WSW 42.6 mph 42.6 mph 90 % 0.0 in
06:59 14.8 °F 13.2 °F 1014.4 in WSW 50.0 mph 50.0 mph 90 % 0.0 in
07:00 14.8 °F 13.2 °F 1014.4 in WSW 44.4 mph 44.4 mph 90 % 0.0 in
07:05 14.9 °F 13.3 °F 1014.8 in WSW 48.1 mph 48.1 mph 90 % 0.0 in
07:07 14.9 °F 13.3 °F 1014.8 in WSW 42.6 mph 42.6 mph 90 % 0.0 in
07:09 15.0 °F 13.4 °F 1014.4 in WSW 40.7 mph 40.7 mph 90 % 0.0 in
07:13 15.1 °F 13.4 °F 1014.1 in SW 38.9 mph 38.9 mph 90 % 0.0 in
07:18 15.1 °F 13.3 °F 1014.4 in WSW 42.6 mph 42.6 mph 89 % 0.0 in
07:21 15.2 °F 13.4 °F 1014.4 in WSW 48.1 mph 48.1 mph 89 % 0.0 in
07:25 15.1 °F 13.1 °F 1014.1 in WSW 55.5 mph 55.5 mph 88 % 0.0 in
07:26 15.1 °F 13.1 °F 1014.1 in SW 55.5 mph 55.5 mph 88 % 0.0 in
07:31 15.1 °F 13.3 °F 1014.1 in SW 50.0 mph 50.0 mph 89 % 0.0 in
07:32 15.1 °F 13.3 °F 1014.1 in WSW 50.0 mph 50.0 mph 89 % 0.0 in
07:37 15.1 °F 13.3 °F 1014.1 in SW 46.3 mph 46.3 mph 89 % 0.0 in
07:41 15.1 °F 13.3 °F 1014.1 in WSW 49.9 mph 49.9 mph 89 % 0.0 in
07:42 15.1 °F 13.3 °F 1014.1 in WSW 55.5 mph 55.5 mph 89 % 0.0 in
07:48 15.1 °F 13.3 °F 1014.1 in WSW 48.1 mph 48.1 mph 89 % 0.0 in
07:50 15.2 °F 13.4 °F 1014.1 in WSW 51.8 mph 51.8 mph 89 % 0.0 in
07:53 15.2 °F 13.4 °F 1014.1 in WSW 44.4 mph 44.4 mph 89 % 0.0 in
07:55 15.2 °F 13.4 °F 1014.1 in WSW 38.6 mph 49.9 mph 89 % 0.0 in
07:59 15.2 °F 13.4 °F 1014.1 in WSW 51.8 mph 51.8 mph 89 % 0.0 in
08:02 15.2 °F 13.2 °F 1014.1 in WSW 46.3 mph 46.3 mph 88 % 0.0 in
08:05 15.3 °F 13.3 °F 1014.4 in WSW 57.4 mph 57.4 mph 88 % 0.0 in
08:08 15.3 °F 13.3 °F 1014.1 in SW 50.0 mph 50.0 mph 88 % 0.0 in
08:10 15.3 °F 13.3 °F 1014.4 in WSW 53.7 mph 53.7 mph 88 % 0.0 in
08:15 15.3 °F 13.3 °F 1014.4 in WSW 48.1 mph 48.1 mph 88 % 0.0 in
08:16 15.3 °F 13.3 °F 1014.1 in WSW 48.1 mph 48.1 mph 88 % 0.0 in
08:21 15.3 °F 13.5 °F 1014.1 in WSW 44.4 mph 44.4 mph 89 % 0.0 in
08:22 15.3 °F 13.5 °F 1014.1 in WSW 48.1 mph 48.1 mph 89 % 0.0 in
08:26 15.3 °F 13.5 °F 1014.4 in WSW 51.8 mph 51.8 mph 89 % 0.0 in
08:30 15.3 °F 13.3 °F 1014.1 in WSW 38.6 mph 53.1 mph 88 % 0.0 in
08:35 15.4 °F 13.4 °F 1014.4 in WSW 43.4 mph 43.4 mph 88 % 0.0 in
08:40 15.6 °F 13.4 °F 1014.4 in WSW 48.1 mph 48.1 mph 87 % 0.0 in
08:41 15.6 °F 13.4 °F 1014.4 in WSW 48.1 mph 48.1 mph 87 % 0.0 in
08:43 15.6 °F 13.4 °F 1014.4 in WSW 44.4 mph 44.4 mph 87 % 0.0 in
08:46 15.6 °F 13.4 °F 1014.4 in WSW 46.3 mph 46.3 mph 87 % 0.0 in
08:51 15.6 °F 13.4 °F 1014.8 in WSW 48.1 mph 48.1 mph 87 % 0.0 in
08:52 15.5 °F 13.3 °F 1014.4 in WSW 38.9 mph 38.9 mph 87 % 0.0 in
08:57 15.5 °F 13.5 °F 1014.8 in WSW 50.0 mph 50.0 mph 88 % 0.0 in
08:58 15.5 °F 13.5 °F 1014.4 in WSW 50.0 mph 50.0 mph 88 % 0.0 in
08:59 15.5 °F 13.5 °F 1014.4 in WSW 55.5 mph 55.5 mph 88 % 0.0 in
09:04 15.4 °F 13.4 °F 1014.4 in WSW 42.6 mph 42.6 mph 88 % 0.0 in
09:06 15.4 °F 13.4 °F 1014.4 in SW 42.6 mph 42.6 mph 88 % 0.0 in
09:08 15.4 °F 13.4 °F 1014.8 in WSW 49.9 mph 49.9 mph 88 % 0.0 in
09:13 15.4 °F 13.6 °F 1014.8 in WSW 46.3 mph 46.3 mph 89 % 0.0 in
09:16 15.4 °F 13.6 °F 1014.8 in SW 42.6 mph 42.6 mph 89 % 0.0 in
09:18 15.3 °F 13.6 °F 1014.8 in WSW 46.3 mph 46.3 mph 89 % 0.0 in
09:23 15.3 °F 13.6 °F 1014.8 in SW 43.4 mph 43.4 mph 89 % 0.0 in
09:24 15.3 °F 13.6 °F 1014.8 in WSW 43.4 mph 43.4 mph 89 % 0.0 in
09:29 15.3 °F 13.5 °F 1014.4 in WSW 48.1 mph 48.1 mph 89 % 0.0 in
09:32 15.3 °F 13.7 °F 1014.4 in WSW 53.1 mph 53.1 mph 90 % 0.0 in
09:37 15.3 °F 13.7 °F 1014.8 in SW 42.6 mph 42.6 mph 90 % 0.0 in
09:38 15.3 °F 13.7 °F 1014.8 in West 44.4 mph 44.4 mph 90 % 0.0 in
09:42 15.3 °F 13.7 °F 1014.8 in WSW 46.3 mph 46.3 mph 90 % 0.0 in
09:43 15.3 °F 13.7 °F 1015.1 in WSW 46.7 mph 46.7 mph 90 % 0.0 in
09:48 15.3 °F 13.7 °F 1014.8 in West 44.4 mph 44.4 mph 90 % 0.0 in
09:53 15.3 °F 13.7 °F 1015.1 in WSW 46.7 mph 46.7 mph 90 % 0.0 in
09:55 15.3 °F 13.7 °F 1014.8 in SW 46.3 mph 46.3 mph 90 % 0.0 in
10:00 15.3 °F 13.8 °F 1015.1 in WSW 42.6 mph 42.6 mph 91 % 0.0 in
10:01 15.3 °F 13.8 °F 1015.1 in WSW 42.6 mph 42.6 mph 91 % 0.0 in
10:06 15.3 °F 13.8 °F 1015.1 in WSW 42.6 mph 42.6 mph 91 % 0.0 in
10:07 15.3 °F 13.8 °F 1015.5 in WSW 42.6 mph 42.6 mph 91 % 0.0 in
10:12 15.3 °F 13.9 °F 1015.5 in WSW 46.3 mph 46.3 mph 91 % 0.0 in
10:17 15.4 °F 14.0 °F 1015.5 in WSW 37.0 mph 37.0 mph 91 % 0.0 in
10:18 15.4 °F 14.0 °F 1015.5 in WSW 37.0 mph 37.0 mph 91 % 0.0 in
10:21 15.6 °F 14.1 °F 1015.8 in SW 33.3 mph 33.3 mph 91 % 0.0 in
10:24 15.7 °F 14.1 °F 1015.8 in WSW 27.8 mph 27.8 mph 90 % 0.0 in
10:27 15.7 °F 14.1 °F 1015.8 in SW 27.4 mph 27.4 mph 90 % 0.0 in
10:31 15.8 °F 14.0 °F 1015.8 in WSW 27.8 mph 27.8 mph 89 % 0.0 in
10:36 16.0 °F 14.0 °F 1016.1 in West 16.1 mph 16.1 mph 88 % 0.0 in
10:37 16.1 °F 14.1 °F 1016.1 in West 16.7 mph 16.7 mph 88 % 0.0 in
10:42 16.3 °F 13.9 °F 1016.1 in West 13.0 mph 13.0 mph 86 % 0.0 in
10:44 16.4 °F 13.9 °F 1016.1 in West 13.0 mph 13.0 mph 85 % 0.0 in
10:49 16.7 °F 13.4 °F 1016.5 in West 16.7 mph 16.7 mph 81 % 0.0 in
10:50 16.7 °F 13.4 °F 1016.5 in WSW 11.1 mph 11.1 mph 81 % 0.0 in
10:51 16.8 °F 13.3 °F 1016.5 in SW 12.9 mph 12.9 mph 80 % 0.0 in
10:56 17.1 °F 13.0 °F 1016.5 in WNW 5.6 mph 5.6 mph 77 % 0.0 in
10:57 17.1 °F 13.0 °F 1016.5 in WNW 5.6 mph 5.6 mph 77 % 0.0 in
11:02 17.2 °F 12.6 °F 1016.5 in NW 6.4 mph 6.4 mph 74 % 0.0 in
11:06 17.3 °F 12.4 °F 1016.5 in WNW 13.0 mph 13.0 mph 73 % 0.0 in
11:11 17.4 °F 11.8 °F 1016.5 in West 11.1 mph 11.1 mph 70 % 0.0 in
11:12 17.4 °F 11.8 °F 1016.8 in West 11.1 mph 11.1 mph 70 % 0.0 in
11:17 17.5 °F 11.7 °F 1016.8 in NW 13.0 mph 13.0 mph 69 % 0.0 in
11:22 17.6 °F 11.6 °F 1016.8 in WNW 14.8 mph 14.8 mph 68 % 0.0 in
11:27 17.6 °F 11.6 °F 1016.8 in SW 3.7 mph   68 % 0.0 in
11:32 17.6 °F 11.4 °F 1016.8 in WSW 7.4 mph 7.4 mph 67 % 0.0 in
11:33 17.6 °F 11.4 °F 1016.8 in WSW 5.6 mph 5.6 mph 67 % 0.0 in
11:38 17.7 °F 11.0 °F 1016.8 in West 18.5 mph 18.5 mph 65 % 0.0 in
11:43 17.9 °F 11.0 °F 1016.8 in NW 18.5 mph 18.5 mph 64 % 0.0 in
11:44 17.9 °F 11.0 °F 1016.8 in WNW 20.9 mph 20.9 mph 64 % 0.0 in
11:49 18.1 °F 10.9 °F 1017.2 in West 16.1 mph 16.1 mph 63 % 0.0 in
11:50 18.1 °F 10.7 °F 1017.2 in WNW 22.2 mph 22.2 mph 62 % 0.0 in
11:54 18.3 °F 10.6 °F 1017.2 in NW 25.9 mph 25.9 mph 61 % 0.0 in
11:59 18.4 °F 10.5 °F 1016.8 in WNW 27.8 mph 27.8 mph 60 % 0.0 in
12:00 18.4 °F 10.5 °F 1016.8 in West 27.8 mph 27.8 mph 60 % 0.0 in
12:05 18.5 °F 10.6 °F 1016.8 in West 13.0 mph 13.0 mph 60 % 0.0 in
12:10 18.6 °F 10.4 °F 1016.8 in WNW 24.1 mph 24.1 mph 59 % 0.0 in
12:11 18.6 °F 10.4 °F 1016.8 in NNW 24.1 mph 24.1 mph 59 % 0.0 in
12:12 18.6 °F 10.4 °F 1016.8 in NW 16.7 mph 16.7 mph 59 % 0.0 in
12:16 18.7 °F 10.5 °F 1016.8 in WNW 16.7 mph 16.7 mph 59 % 0.0 in
12:21 18.7 °F 10.5 °F 1016.5 in NW 13.0 mph 13.0 mph 59 % 0.0 in
12:22 18.7 °F 10.5 °F 1016.5 in NW 13.0 mph 13.0 mph 59 % 0.0 in
12:27 18.8 °F 10.6 °F 1016.5 in WNW 13.0 mph 13.0 mph 59 % 0.0 in
12:29 18.8 °F 10.4 °F 1016.5 in NNW 9.3 mph 9.3 mph 58 % 0.0 in
12:31 18.9 °F 10.4 °F 1016.5 in NNW 11.3 mph 11.3 mph 58 % 0.0 in
12:36 18.9 °F 10.5 °F 1016.1 in WSW 20.9 mph 20.9 mph 58 % 0.0 in
12:41 18.9 °F 10.5 °F 1016.1 in NNE 9.7 mph 9.7 mph 58 % 0.0 in
12:46 18.9 °F 10.4 °F 1016.1 in West 9.3 mph 9.3 mph 58 % 0.0 in
12:48 18.8 °F 10.4 °F 1016.1 in West 9.3 mph 9.3 mph 58 % 0.0 in
12:53 18.8 °F 11.3 °F 1016.1 in WSW 16.7 mph 16.7 mph 62 % 0.0 in
12:58 18.5 °F 11.3 °F 1016.1 in West 13.0 mph 13.0 mph 63 % 0.0 in
12:59 18.4 °F 11.2 °F 1015.8 in West 11.1 mph 11.1 mph 63 % 0.0 in
13:05 18.3 °F 11.2 °F 1016.1 in West 9.3 mph 9.3 mph 63 % 0.0 in
13:06 18.3 °F 11.2 °F 1016.1 in WNW 7.4 mph 8.2 mph 63 % 0.0 in
13:10 18.3 °F 10.2 °F 1016.1 in SW 16.7 mph 16.7 mph 59 % 0.0 in
13:12 18.4 °F 10.5 °F 1016.1 in NW 13.0 mph 13.0 mph 60 % 0.0 in
13:17 18.6 °F 9.6 °F 1015.8 in West 24.1 mph 24.1 mph 56 % 0.0 in
13:18 18.6 °F 9.7 °F 1015.8 in West 27.8 mph 27.8 mph 56 % 0.0 in
13:21 18.7 °F 10.0 °F 1015.8 in West 20.4 mph 20.4 mph 57 % 0.0 in
13:24 18.6 °F 10.7 °F 1015.8 in WSW 33.8 mph 33.8 mph 60 % 0.0 in
13:29 18.1 °F 10.9 °F 1015.8 in West 22.2 mph 22.2 mph 63 % 0.0 in
13:34 17.9 °F 11.0 °F 1015.8 in West 29.6 mph 29.6 mph 64 % 0.0 in
13:37 17.9 °F 10.3 °F 1015.8 in West 22.5 mph 22.5 mph 61 % 0.0 in
13:41 18.1 °F 10.4 °F 1015.8 in WNW 16.7 mph 16.7 mph 61 % 0.0 in
13:46 18.2 °F 10.5 °F 1015.5 in West 37.0 mph 37.0 mph 61 % 0.0 in
13:47 18.2 °F 10.5 °F 1015.5 in West 37.0 mph 37.0 mph 61 % 0.0 in
13:48 18.2 °F 10.5 °F 1015.5 in WSW 37.0 mph 37.0 mph 61 % 0.0 in
13:52 18.2 °F 10.1 °F 1015.5 in West 22.5 mph 22.5 mph 59 % 0.0 in
13:54 18.3 °F 10.4 °F 1015.5 in WSW 24.1 mph 24.1 mph 60 % 0.0 in
13:58 18.3 °F 10.4 °F 1015.5 in WNW 24.1 mph 24.1 mph 60 % 0.0 in
14:00 18.3 °F 10.1 °F 1015.5 in West 25.9 mph 25.9 mph 59 % 0.0 in
14:04 18.2 °F 10.1 °F 1015.5 in West 31.5 mph 31.5 mph 59 % 0.0 in
14:05 18.2 °F 10.0 °F 1015.1 in West 24.1 mph 24.1 mph 59 % 0.0 in
14:09 18.1 °F 9.9 °F 1015.5 in West 22.2 mph 22.2 mph 59 % 0.0 in
14:11 18.1 °F 9.7 °F 1015.1 in WSW 35.2 mph 35.2 mph 58 % 0.0 in
14:16 18.1 °F 9.9 °F 1015.5 in West 32.2 mph 32.2 mph 59 % 0.0 in
14:17 18.1 °F 9.9 °F 1015.5 in WSW 31.5 mph 31.5 mph 59 % 0.0 in
14:20 18.1 °F 9.9 °F 1015.1 in West 24.1 mph 24.1 mph 59 % 0.0 in
14:22 18.0 °F 9.9 °F 1015.1 in West 18.5 mph 18.5 mph 59 % 0.0 in
14:27 18.1 °F 9.9 °F 1015.1 in West 31.5 mph 31.5 mph 59 % 0.0 in
14:29 18.1 °F 9.7 °F 1015.5 in WNW 31.5 mph 31.5 mph 58 % 0.0 in
14:32 18.1 °F 9.9 °F 1015.5 in WSW 29.6 mph 29.6 mph 59 % 0.0 in
14:35 18.0 °F 9.9 °F 1015.1 in West 31.5 mph 31.5 mph 59 % 0.0 in
14:37 18.0 °F 10.1 °F 1015.1 in WSW 31.5 mph 31.5 mph 60 % 0.0 in
14:40 17.9 °F 9.8 °F 1015.5 in WNW 31.5 mph 31.5 mph 59 % 0.0 in
14:45 17.9 °F 10.0 °F 1015.5 in WSW 27.8 mph 27.8 mph 60 % 0.0 in
14:49 17.9 °F 10.0 °F 1015.5 in West 16.7 mph 16.7 mph 60 % 0.0 in
14:51 17.8 °F 10.2 °F 1015.5 in WNW 24.1 mph 24.1 mph 61 % 0.0 in
14:54 17.8 °F 10.2 °F 1015.5 in West 25.9 mph 25.9 mph 61 % 0.0 in
14:58 17.7 °F 10.1 °F 1015.5 in WSW 29.6 mph 29.6 mph 61 % 0.0 in
15:01 17.7 °F 10.1 °F 1015.1 in West 27.8 mph 27.8 mph 61 % 0.0 in
15:06 17.6 °F 10.2 °F 1015.1 in WNW 29.6 mph 29.6 mph 62 % 0.0 in
15:07 17.6 °F 10.0 °F 1015.1 in WNW 29.6 mph 29.6 mph 61 % 0.0 in
15:12 17.6 °F 10.0 °F 1015.5 in West 25.9 mph 25.9 mph 61 % 0.0 in
15:17 17.6 °F 10.2 °F 1015.5 in WNW 14.8 mph 14.8 mph 62 % 0.0 in
15:18 17.6 °F 10.2 °F 1015.5 in NW 14.8 mph 14.8 mph 62 % 0.0 in
15:23 17.5 °F 10.1 °F 1015.5 in West 17.7 mph 17.7 mph 62 % 0.0 in
15:26 17.5 °F 10.1 °F 1015.5 in West 24.1 mph 24.1 mph 62 % 0.0 in
15:29 17.6 °F 10.2 °F 1015.5 in West 20.4 mph 20.4 mph 62 % 0.0 in
15:31 17.5 °F 10.4 °F 1015.5 in West 16.7 mph 16.7 mph 63 % 0.0 in
15:36 17.5 °F 10.4 °F 1015.1 in West 24.1 mph 24.1 mph 63 % 0.0 in
15:41 17.5 °F 10.4 °F 1015.1 in West 16.7 mph 16.7 mph 63 % 0.0 in
15:44 17.5 °F 10.4 °F 1015.1 in WSW 20.4 mph 20.4 mph 63 % 0.0 in
15:45 17.5 °F 10.4 °F 1015.1 in West 27.8 mph 27.8 mph 63 % 0.0 in
15:50 17.4 °F 10.6 °F 1015.1 in West 24.1 mph 24.1 mph 64 % 0.0 in
15:53 17.4 °F 10.7 °F 1015.1 in WSW 29.6 mph 29.6 mph 65 % 0.0 in
15:56 17.3 °F 10.9 °F 1015.1 in WSW 31.5 mph 31.5 mph 66 % 0.0 in
16:01 17.1 °F 10.9 °F 1015.1 in SW 42.6 mph 42.6 mph 67 % 0.0 in
16:02 17.0 °F 10.8 °F 1015.1 in West 38.9 mph 38.9 mph 67 % 0.0 in
16:07 16.9 °F 10.9 °F 1015.1 in West 31.5 mph 31.5 mph 68 % 0.0 in
16:12 16.9 °F 11.0 °F 1015.1 in WSW 35.2 mph 35.2 mph 68 % 0.0 in
16:13 16.9 °F 11.0 °F 1015.1 in West 35.2 mph 35.2 mph 68 % 0.0 in
16:15 16.9 °F 10.9 °F 1015.1 in West 38.9 mph 38.9 mph 68 % 0.0 in
16:19 16.8 °F 11.1 °F 1015.1 in WSW 35.2 mph 35.2 mph 69 % 0.0 in
16:21 16.7 °F 11.0 °F 1015.1 in West 29.6 mph 29.6 mph 69 % 0.0 in
16:24 16.7 °F 11.2 °F 1015.1 in West 40.7 mph 40.7 mph 70 % 0.0 in
16:29 16.6 °F 11.3 °F 1015.1 in West 35.2 mph 35.2 mph 71 % 0.0 in
16:32 16.4 °F 11.2 °F 1015.1 in West 46.3 mph 46.3 mph 71 % 0.0 in
16:35 16.4 °F 11.3 °F 1015.1 in WNW 42.6 mph 42.6 mph 72 % 0.0 in
16:38 16.4 °F 11.2 °F 1015.1 in West 40.7 mph 40.7 mph 71 % 0.0 in
16:42 16.5 °F 11.0 °F 1015.1 in West 31.5 mph 31.5 mph 70 % 0.0 in
16:46 16.5 °F 11.0 °F 1015.1 in West 24.1 mph 24.1 mph 70 % 0.0 in
16:49 16.6 °F 10.9 °F 1015.1 in WNW 29.6 mph 29.6 mph 69 % 0.0 in
16:51 16.7 °F 10.8 °F 1015.1 in West 31.5 mph 31.5 mph 68 % 0.0 in
16:54 16.9 °F 10.5 °F 1015.1 in WSW 29.6 mph 29.6 mph 66 % 0.0 in
16:59 16.8 °F 10.8 °F 1015.5 in West 37.0 mph 37.0 mph 68 % 0.0 in
17:01 16.8 °F 10.8 °F 1015.1 in West 37.0 mph 37.0 mph 68 % 0.0 in
17:03 16.7 °F 10.8 °F 1015.5 in WNW 35.2 mph 35.2 mph 68 % 0.0 in
17:06 16.7 °F 10.6 °F 1015.5 in West 27.8 mph 27.8 mph 67 % 0.0 in
17:08 16.8 °F 10.6 °F 1015.1 in NNW 25.7 mph 25.7 mph 67 % 0.0 in
17:11 16.8 °F 10.4 °F 1015.5 in WNW 24.1 mph 24.1 mph 66 % 0.0 in
17:14 16.9 °F 10.5 °F 1015.5 in WNW 24.1 mph 24.1 mph 66 % 0.0 in
17:17 16.9 °F 10.3 °F 1015.5 in WSW 27.8 mph 27.8 mph 65 % 0.0 in
17:20 16.9 °F 10.1 °F 1015.1 in WSW 29.6 mph 29.6 mph 64 % 0.0 in
17:23 17.1 °F 10.2 °F 1015.5 in West 27.8 mph 27.8 mph 64 % 0.0 in
17:26 17.1 °F 10.0 °F 1015.5 in WNW 22.2 mph 22.2 mph 63 % 0.0 in
17:31 17.2 °F 10.1 °F 1015.5 in West 24.1 mph 24.1 mph 63 % 0.0 in
17:36 17.2 °F 10.1 °F 1015.5 in West 20.9 mph 20.9 mph 63 % 0.0 in
17:38 17.2 °F 10.1 °F 1015.5 in West 31.5 mph 31.5 mph 63 % 0.0 in
17:42 17.2 °F 10.1 °F 1015.8 in WNW 29.6 mph 29.6 mph 63 % 0.0 in
17:47 17.2 °F 10.1 °F 1015.8 in WNW 16.7 mph 16.7 mph 63 % 0.0 in
17:52 17.2 °F 10.1 °F 1015.8 in West 18.5 mph 18.5 mph 63 % 0.0 in
17:55 17.2 °F 10.1 °F 1015.8 in West 25.9 mph 25.9 mph 63 % 0.0 in
17:58 17.2 °F 10.3 °F 1015.8 in West 25.9 mph 25.9 mph 64 % 0.0 in
18:00 17.2 °F 10.1 °F 1015.8 in West 27.8 mph 27.8 mph 63 % 0.0 in
18:01 17.2 °F 10.1 °F 1015.8 in WSW 27.8 mph 27.8 mph 63 % 0.0 in
18:06 17.2 °F 10.3 °F 1015.8 in West 29.6 mph 29.6 mph 64 % 0.0 in
18:11 17.2 °F 10.1 °F 1015.8 in West 22.5 mph 22.5 mph 63 % 0.0 in
18:16 17.2 °F 10.1 °F 1015.8 in WNW 24.1 mph 24.1 mph 63 % 0.0 in
18:17 17.2 °F 10.1 °F 1015.8 in WNW 27.8 mph 27.8 mph 63 % 0.0 in
18:22 17.2 °F 10.1 °F 1015.8 in NW 16.7 mph 16.7 mph 63 % 0.0 in
18:23 17.2 °F 10.1 °F 1015.8 in WNW 16.7 mph 16.7 mph 63 % 0.0 in
18:28 17.2 °F 9.8 °F 1015.8 in WNW 18.5 mph 18.5 mph 62 % 0.0 in
18:30 17.2 °F 9.6 °F 1015.8 in West 18.5 mph 18.5 mph 61 % 0.0 in
18:32 17.2 °F 9.9 °F 1015.8 in NNW 43.4 mph 43.4 mph 62 % 0.0 in
18:36 17.4 °F 9.6 °F 1015.8 in NW 24.1 mph 24.1 mph 60 % 0.0 in
18:41 17.5 °F 9.9 °F 1015.8 in West 27.8 mph 27.8 mph 61 % 0.0 in
18:42 17.4 °F 9.8 °F 1015.8 in West 32.2 mph 32.2 mph 61 % 0.0 in
18:47 17.6 °F 9.2 °F 1015.8 in West 27.8 mph 27.8 mph 58 % 0.0 in
18:49 17.6 °F 9.4 °F 1015.8 in WNW 27.8 mph 27.8 mph 59 % 0.0 in
18:52 17.6 °F 9.4 °F 1016.1 in West 18.5 mph 18.5 mph 59 % 0.0 in
18:58 17.7 °F 9.1 °F 1016.1 in West 42.6 mph 42.6 mph 57 % 0.0 in
19:00 17.7 °F 9.3 °F 1016.1 in WNW 19.3 mph 43.4 mph 58 % 0.0 in
19:03 17.7 °F 9.6 °F 1016.1 in West 25.9 mph 25.9 mph 59 % 0.0 in
19:08 17.6 °F 9.7 °F 1016.1 in WNW 18.5 mph 18.5 mph 60 % 0.0 in
19:13 17.4 °F 9.6 °F 1016.1 in West 33.3 mph 33.3 mph 60 % 0.0 in
19:14 17.3 °F 9.5 °F 1016.1 in WNW 24.1 mph 24.1 mph 60 % 0.0 in
19:18 17.3 °F 9.7 °F 1016.1 in West 22.5 mph 22.5 mph 61 % 0.0 in
19:20 17.2 °F 9.9 °F 1016.5 in West 24.1 mph 24.1 mph 62 % 0.0 in
19:23 17.2 °F 9.6 °F 1016.5 in NW 31.5 mph 31.5 mph 61 % 0.0 in
19:26 17.2 °F 9.9 °F 1016.5 in West 22.2 mph 22.2 mph 62 % 0.0 in
19:28 17.2 °F 9.9 °F 1016.5 in West 31.5 mph 31.5 mph 62 % 0.0 in
19:31 17.3 °F 9.4 °F 1016.5 in West 27.8 mph 27.8 mph 60 % 0.0 in
19:34 17.3 °F 9.5 °F 1016.5 in NW 22.5 mph 22.5 mph 60 % 0.0 in
19:39 17.4 °F 9.6 °F 1016.5 in WNW 18.5 mph 18.5 mph 60 % 0.0 in
19:43 17.3 °F 9.7 °F 1016.5 in WNW 24.1 mph 24.1 mph 61 % 0.0 in
19:48 17.3 °F 9.7 °F 1016.5 in West 22.5 mph 22.5 mph 61 % 0.0 in
19:50 17.3 °F 10.0 °F 1016.5 in NW 20.4 mph 20.4 mph 62 % 0.0 in
19:52 17.3 °F 9.7 °F 1016.8 in West 24.1 mph 24.1 mph 61 % 0.0 in
19:55 17.3 °F 9.7 °F 1016.8 in WNW 24.1 mph 24.1 mph 61 % 0.0 in
19:57 17.3 °F 9.7 °F 1016.8 in WNW 24.1 mph 24.1 mph 61 % 0.0 in
20:01 17.3 °F 9.9 °F 1016.8 in West 18.5 mph 18.5 mph 62 % 0.0 in
20:06 17.2 °F 9.9 °F 1016.8 in West 31.5 mph 31.5 mph 62 % 0.0 in
20:11 17.4 °F 9.8 °F 1016.8 in WNW 18.5 mph 18.5 mph 61 % 0.0 in
20:12 17.4 °F 9.8 °F 1016.8 in West 18.5 mph 18.5 mph 61 % 0.0 in
20:17 17.3 °F 9.9 °F 1016.8 in West 18.5 mph 18.5 mph 62 % 0.0 in
20:22 17.2 °F 9.8 °F 1016.8 in WNW 29.6 mph 29.6 mph 62 % 0.0 in
20:26 17.2 °F 9.8 °F 1016.8 in NW 25.9 mph 25.9 mph 62 % 0.0 in
20:28 17.2 °F 9.8 °F 1016.8 in WNW 29.0 mph 29.0 mph 62 % 0.0 in
20:33 17.2 °F 10.1 °F 1016.8 in NW 20.4 mph 20.4 mph 63 % 0.0 in
20:34 17.2 °F 10.1 °F 1016.8 in WNW 20.9 mph 20.9 mph 63 % 0.0 in
20:35 17.2 °F 10.1 °F 1016.8 in WNW 14.5 mph 20.9 mph 63 % 0.0 in
20:40 17.1 °F 9.9 °F 1016.8 in WNW 20.4 mph 20.4 mph 63 % 0.0 in
20:42 17.1 °F 10.0 °F 1016.8 in NW 24.1 mph 24.1 mph 63 % 0.0 in
20:45 17.1 °F 9.8 °F 1016.8 in NW 20.9 mph 33.8 mph 62 % 0.0 in
20:49 17.1 °F 10.0 °F 1017.2 in West 19.3 mph 19.3 mph 63 % 0.0 in
20:50 17.1 °F 9.8 °F 1017.2 in NW 29.6 mph 29.6 mph 62 % 0.0 in
20:55 17.3 °F 9.4 °F 1017.2 in NW 25.9 mph 25.9 mph 60 % 0.0 in
20:56 17.3 °F 9.4 °F 1017.2 in WNW 25.9 mph 25.9 mph 60 % 0.0 in
20:59 17.4 °F 9.6 °F 1017.2 in NW 24.1 mph 24.1 mph 60 % 0.0 in
21:01 17.4 °F 9.6 °F 1017.2 in WNW 27.8 mph 27.8 mph 60 % 0.0 in
21:06 17.5 °F 9.4 °F 1017.2 in NW 27.8 mph 27.8 mph 59 % 0.0 in
21:11 17.6 °F 9.4 °F 1016.8 in WNW 31.5 mph 31.5 mph 59 % 0.0 in
21:12 17.6 °F 9.4 °F 1016.8 in WNW 33.3 mph 33.3 mph 59 % 0.0 in
21:17 17.5 °F 9.4 °F 1017.2 in NW 31.5 mph 31.5 mph 59 % 0.0 in
21:21 17.5 °F 9.2 °F 1016.8 in NW 38.9 mph 38.9 mph 58 % 0.0 in
21:23 17.6 °F 9.2 °F 1016.8 in NW 38.6 mph 38.6 mph 58 % 0.0 in
21:26 17.6 °F 9.2 °F 1017.2 in NW 40.7 mph 40.7 mph 58 % 0.0 in
21:31 17.5 °F 9.2 °F 1016.8 in NNW 38.9 mph 38.9 mph 58 % 0.0 in
21:32 17.5 °F 9.2 °F 1016.8 in NNW 38.9 mph 38.9 mph 58 % 0.0 in
21:37 17.4 °F 9.1 °F 1017.2 in NW 31.5 mph 31.5 mph 58 % 0.0 in
21:42 17.4 °F 9.1 °F 1017.2 in NNW 37.0 mph 37.0 mph 58 % 0.0 in
21:43 17.3 °F 9.0 °F 1017.2 in NW 37.0 mph 37.0 mph 58 % 0.0 in
21:48 17.3 °F 8.9 °F 1017.2 in NW 35.2 mph 35.2 mph 58 % 0.0 in
21:49 17.3 °F 8.9 °F 1017.2 in NW 31.5 mph 31.5 mph 58 % 0.0 in
21:54 17.2 °F 8.9 °F 1017.5 in NW 38.9 mph 38.9 mph 58 % 0.0 in
21:59 17.2 °F 8.8 °F 1017.2 in NW 38.9 mph 38.9 mph 58 % 0.0 in
22:01 17.2 °F 8.8 °F 1017.5 in NW 40.2 mph 40.2 mph 58 % 0.0 in
22:05 17.2 °F 8.6 °F 1017.5 in WNW 37.0 mph 37.0 mph 57 % 0.0 in
22:07 17.2 °F 8.6 °F 1017.2 in NNW 48.1 mph 48.1 mph 57 % 0.0 in
22:11 17.2 °F 8.6 °F 1017.2 in North 37.0 mph 37.0 mph 57 % 0.0 in
22:12 17.1 °F 8.5 °F 1017.2 in WNW 37.0 mph 37.0 mph 57 % 0.0 in
22:17 17.1 °F 8.7 °F 1017.2 in NW 31.5 mph 31.5 mph 58 % 0.0 in
22:18 17.1 °F 8.7 °F 1017.2 in NW 31.5 mph 31.5 mph 58 % 0.0 in
22:19 17.1 °F 8.7 °F 1017.2 in WNW 31.5 mph 31.5 mph 58 % 0.0 in
22:23 17.0 °F 8.7 °F 1017.5 in NW 37.0 mph 37.0 mph 58 % 0.0 in
22:25 17.0 °F 8.7 °F 1017.2 in WNW 38.9 mph 38.9 mph 58 % 0.0 in
22:29 17.0 °F 8.7 °F 1017.5 in NW 33.8 mph 33.8 mph 58 % 0.0 in
22:34 17.0 °F 8.7 °F 1017.5 in WNW 40.7 mph 40.7 mph 58 % 0.0 in
22:35 16.9 °F 8.6 °F 1017.8 in NW 40.7 mph 40.7 mph 58 % 0.0 in
22:40 16.9 °F 8.6 °F 1017.5 in NW 25.7 mph 38.6 mph 58 % 0.0 in
22:41 16.9 °F 8.6 °F 1017.5 in NW 31.5 mph 31.5 mph 58 % 0.0 in
22:42 16.9 °F 8.6 °F 1017.5 in NW 33.8 mph 33.8 mph 58 % 0.0 in
22:47 17.0 °F 8.7 °F 1017.5 in NNW 37.0 mph 37.0 mph 58 % 0.0 in
22:48 16.9 °F 8.6 °F 1017.5 in NNW 35.2 mph 35.2 mph 58 % 0.0 in
22:53 16.9 °F 8.6 °F 1017.8 in NW 31.5 mph 31.5 mph 58 % 0.0 in
22:57 16.9 °F 8.6 °F 1017.8 in WNW 25.9 mph 25.9 mph 58 % 0.0 in
22:59 16.9 °F 8.6 °F 1017.8 in NW 31.5 mph 31.5 mph 58 % 0.0 in
23:04 16.8 °F 8.5 °F 1017.5 in NNW 31.5 mph 31.5 mph 58 % 0.0 in
23:07 16.8 °F 8.5 °F 1017.8 in NW 20.4 mph 20.4 mph 58 % 0.0 in
23:09 16.8 °F 8.5 °F 1017.8 in WNW 22.2 mph 22.2 mph 58 % 0.0 in
23:13 16.8 °F 8.4 °F 1017.8 in NW 25.7 mph 25.7 mph 58 % 0.0 in
23:19 16.9 °F 8.6 °F 1018.2 in WNW 25.7 mph 25.7 mph 58 % 0.0 in
23:24 16.9 °F 8.6 °F 1017.8 in NW 22.2 mph 22.2 mph 58 % 0.0 in
23:25 16.9 °F 8.6 °F 1017.8 in NW 22.2 mph 22.2 mph 58 % 0.0 in
23:30 16.8 °F 8.8 °F 1018.2 in WNW 16.7 mph 16.7 mph 59 % 0.0 in
23:35 16.8 °F 8.7 °F 1018.2 in NW 9.3 mph 9.3 mph 59 % 0.0 in
23:37 16.7 °F 8.7 °F 1018.2 in NW 9.7 mph 9.7 mph 59 % 0.0 in
23:42 16.6 °F 8.6 °F 1018.2 in West 14.8 mph 14.8 mph 59 % 0.0 in
23:43 16.6 °F 8.8 °F 1018.5 in West 11.3 mph 11.3 mph 60 % 0.0 in
23:48 16.5 °F 8.7 °F 1018.5 in West 11.1 mph 11.1 mph 60 % 0.0 in
23:49 16.4 °F 8.9 °F 1018.2 in WSW 14.8 mph 14.8 mph 61 % 0.0 in
23:54 16.2 °F 9.1 °F 1018.2 in West 20.4 mph 20.4 mph 63 % 0.0 in
23:55 16.1 °F 9.1 °F 1018.2 in WNW 20.4 mph 20.4 mph 63 % 0.0 in
23:59 15.9 °F 9.1 °F 1018.2 in West 20.4 mph 20.4 mph 64 % 0.0 in
Puerto Banus, Marbella
Elogios de Weather Underground - 2.25 mb

Guión original por  Jim McMurry - jmcmurry@mwt.net Adaptado para la plantilla por  Wim van der Kuil - Leuven-Template.eu

Usted encontrará nuestra información del tiempo también en:

Weather Underground

Iberian Peninsula Weather Network